Aeroporto :
LOGIN :

Iscrizione | Disclaimer

   EN    FR    IT 

 










Sommario :    VFR   VFR Marginale   IFR   IFR Intensivo   IFR Molto Intensivo
Visibilità : 
Base nubi : 
>= 8 km
>= 3000ft
5 / 8 km
1000 / 3000 ft
1500m / 5 km
500 / 1000 ft
800 / 1500m
200 / 500 ft
< 800m
< 200 ft
Simboli :   Temporali  Nebbia  Neve Forte  Precipitazioni Forti  Vento > 20 kt
SIGMETs :   Varie  Temporali  Ghiacco  Turbolenza  Onda orograficha  Ceneri Vulcaniche







- Altitudine del aeroporto : 156 ft
- Codice IATA : OMO


LQMO - Mostar

ULTIMO METAR :
  • 221830Z 02004KT CAVOK 17/13 Q1014

METARs OBSOLETI :
  • 221800Z 33002KT 9999 FEW040 BKN080 18/13 Q1014
  • 221730Z 35002KT 9999 FEW040 BKN082 18/13 Q1014
  • 221700Z VRB02KT 9999 FEW040 BKN080 18/12 Q1014
  • 221630Z 29006KT 9999 FEW040 SCT060 BKN080 19/12 Q1014
  • 221600Z 29007KT 9999 FEW040 SCT060 BKN080 19/13 Q1014

TAF TAF LQMO
Valido dal 22 a 18 ore il 23 a 18 ore UTC


221700Z 2218/2318 21005KT 9999 SCT045 BKN060 TX20/2313Z TN14/2304Z
TEMPO 2309/2318 5000 SHRA FEW035TCU BKN040
PROB30
TEMPO 2312/2316 VRB15KT 4000 TSRA FEW015 FEW030CB BKN040
Nessun NOTAM noto per questo aeroporto.



MetMap, La meteo Aeronautica in un colpo d'occhio ! - Copyright ORBIFLY Dicembre 2007 - Disclaimer

ORBIFLY MET'MAP TEAM :

Programmazione e sviluppo : Alexandra Zaïnal
Concezione e sviluppo : Baudouin d'Aumeries
Co-Programmazione e sviluppo : Marc-Olivier Méhu
Supporto tecnico e logistico : Manuel Goepfert
Aiuto per la traduzione : Arnaldo La Scala

Contatto : metmap@orbifly.com




FONTI E CREDITI :

   NOAA